Time;durP1;ratioP1;P1;durP2;ratioP2;P2;SDS_P1;SDS_P2;PMS_P1;PMS_P2;Temp;Humidity;BMP_temperature;BMP_pressure;BME280_temperature;BME280_humidity;BME280_pressure;Samples;Min_cycle;Max_cycle;Signal;HPM_P1;HPM_P2
2023/11/30 00:00:16;;;;;;;3.90;2.80;;;;;;;;;;5053453;28;20082;-81
2023/11/30 00:02:42;;;;;;;3.67;2.83;;;;;;;;;;5060405;28;20044;-82
2023/11/30 00:05:09;;;;;;;3.83;3.05;;;;;;;;;;5041853;28;20102;-83
2023/11/30 00:07:39;;;;;;;6.60;3.58;;;;;;;;;;5059241;28;20057;-82
2023/11/30 00:10:06;;;;;;;4.18;3.30;;;;;;;;;;5061842;28;20506;-81
2023/11/30 00:12:33;;;;;;;5.15;3.28;;;;;;;;;;5062235;28;20057;-80
2023/11/30 00:15:00;;;;;;;8.73;3.80;;;;;;;;;;5043162;28;20068;-80
2023/11/30 00:17:27;;;;;;;5.20;3.63;;;;;;;;;;5061794;28;20442;-80
2023/11/30 00:19:54;;;;;;;7.32;3.75;;;;;;;;;;5057166;28;20047;-81
2023/11/30 00:22:20;;;;;;;4.90;3.28;;;;;;;;;;5056841;28;20084;-80
2023/11/30 00:24:47;;;;;;;3.88;3.10;;;;;;;;;;5017755;28;20525;-80
2023/11/30 00:27:14;;;;;;;5.05;3.22;;;;;;;;;;5057594;28;20090;-80
2023/11/30 00:29:41;;;;;;;4.03;3.17;;;;;;;;;;5060632;28;20059;-80
2023/11/30 00:32:08;;;;;;;3.53;2.50;;;;;;;;;;5044389;28;20064;-80
2023/11/30 00:34:34;;;;;;;7.18;3.20;;;;;;;;;;5054832;28;20053;-80
2023/11/30 00:37:02;;;;;;;4.03;3.08;;;;;;;;;;5076763;28;20715;-82
2023/11/30 00:39:29;;;;;;;4.38;3.25;;;;;;;;;;5059455;28;20048;-82
2023/11/30 00:41:56;;;;;;;4.43;3.50;;;;;;;;;;5051145;28;20204;-81
2023/11/30 00:44:23;;;;;;;4.60;3.35;;;;;;;;;;5042142;28;20452;-80
2023/11/30 00:46:50;;;;;;;5.35;3.60;;;;;;;;;;5057801;28;20048;-80
2023/11/30 00:49:17;;;;;;;6.30;3.63;;;;;;;;;;5060817;28;20456;-80
2023/11/30 00:51:43;;;;;;;5.20;3.50;;;;;;;;;;5044316;28;20109;-82
2023/11/30 00:54:10;;;;;;;7.60;4.22;;;;;;;;;;5041701;28;20061;-81
2023/11/30 00:56:37;;;;;;;5.95;4.40;;;;;;;;;;5042907;28;20083;-80
2023/11/30 00:59:04;;;;;;;7.88;4.53;;;;;;;;;;5056369;28;20110;-80
2023/11/30 01:01:31;;;;;;;7.28;5.18;;;;;;;;;;5058445;28;20083;-81
2023/11/30 01:03:58;;;;;;;6.68;5.15;;;;;;;;;;5041029;28;20120;-79
2023/11/30 01:06:25;;;;;;;8.38;5.25;;;;;;;;;;5044559;28;20601;-80
2023/11/30 01:08:51;;;;;;;7.28;4.68;;;;;;;;;;5055544;28;20087;-81
2023/11/30 01:11:18;;;;;;;6.43;4.78;;;;;;;;;;5090249;28;20468;-80
2023/11/30 01:13:45;;;;;;;8.77;4.85;;;;;;;;;;5060247;28;20083;-81
2023/11/30 01:16:12;;;;;;;9.57;5.40;;;;;;;;;;5045165;28;20048;-82
2023/11/30 01:18:39;;;;;;;10.52;5.28;;;;;;;;;;5061567;28;20045;-81
2023/11/30 01:21:06;;;;;;;8.63;5.18;;;;;;;;;;5077086;28;20053;-85
2023/11/30 01:23:35;;;;;;;6.75;4.95;;;;;;;;;;5026369;28;20418;-78
2023/11/30 01:26:02;;;;;;;9.00;4.75;;;;;;;;;;5076053;28;20568;-79
2023/11/30 01:28:29;;;;;;;7.95;4.97;;;;;;;;;;5059815;28;20057;-78
2023/11/30 01:30:56;;;;;;;12.13;6.18;;;;;;;;;;5060276;28;20048;-78
2023/11/30 01:33:23;;;;;;;6.28;4.68;;;;;;;;;;5069651;28;20052;-78
2023/11/30 01:35:50;;;;;;;6.25;4.32;;;;;;;;;;5055604;28;20059;-78
2023/11/30 01:38:17;;;;;;;6.93;4.95;;;;;;;;;;5043716;28;20561;-78
2023/11/30 01:40:44;;;;;;;8.63;5.03;;;;;;;;;;5047779;28;20045;-78
2023/11/30 01:43:11;;;;;;;9.20;5.55;;;;;;;;;;5040580;28;20053;-79
2023/11/30 01:45:37;;;;;;;9.02;5.03;;;;;;;;;;5056992;28;20072;-80
2023/11/30 01:48:04;;;;;;;12.75;4.60;;;;;;;;;;5059920;28;20079;-80
2023/11/30 01:50:32;;;;;;;6.80;4.40;;;;;;;;;;5060219;28;20127;-81
2023/11/30 01:52:58;;;;;;;7.15;4.60;;;;;;;;;;5041213;28;20060;-81
2023/11/30 01:55:25;;;;;;;8.00;4.40;;;;;;;;;;5039917;28;20091;-80
2023/11/30 01:57:52;;;;;;;9.25;5.03;;;;;;;;;;5056361;28;20053;-80
2023/11/30 02:00:19;;;;;;;7.65;5.32;;;;;;;;;;5055589;28;20052;-81
2023/11/30 02:02:46;;;;;;;6.90;5.45;;;;;;;;;;5050871;28;20079;-81
2023/11/30 02:05:13;;;;;;;8.75;5.07;;;;;;;;;;5063761;28;20048;-79
2023/11/30 02:07:39;;;;;;;10.30;5.40;;;;;;;;;;5035870;28;20045;-82
2023/11/30 02:10:06;;;;;;;8.02;5.03;;;;;;;;;;5064369;28;20036;-78
2023/11/30 02:12:33;;;;;;;7.80;5.25;;;;;;;;;;5055173;28;20040;-78
2023/11/30 02:15:00;;;;;;;9.52;6.47;;;;;;;;;;5059279;28;20037;-79
2023/11/30 02:17:27;;;;;;;8.88;5.28;;;;;;;;;;5030012;28;20041;-81
2023/11/30 02:19:53;;;;;;;9.80;6.18;;;;;;;;;;5037429;28;20102;-80
2023/11/30 02:22:20;;;;;;;7.88;5.53;;;;;;;;;;5041982;28;20052;-78
2023/11/30 02:24:47;;;;;;;7.90;5.63;;;;;;;;;;5067704;28;20075;-79
2023/11/30 02:27:14;;;;;;;7.43;5.63;;;;;;;;;;5040096;28;20057;-79
2023/11/30 02:29:41;;;;;;;10.93;5.60;;;;;;;;;;5059375;28;20060;-79
2023/11/30 02:32:07;;;;;;;7.85;5.47;;;;;;;;;;5039796;28;20095;-78
2023/11/30 02:34:34;;;;;;;9.75;6.07;;;;;;;;;;5054904;28;20454;-79
2023/11/30 02:37:01;;;;;;;9.02;5.43;;;;;;;;;;5058751;28;20150;-79
2023/11/30 02:39:28;;;;;;;9.32;5.43;;;;;;;;;;5060255;28;20056;-80
2023/11/30 02:41:54;;;;;;;8.90;5.97;;;;;;;;;;5072134;28;20053;-79
2023/11/30 02:44:21;;;;;;;8.20;5.35;;;;;;;;;;5057401;28;20052;-79
2023/11/30 02:46:48;;;;;;;10.07;6.25;;;;;;;;;;5041230;28;20056;-78
2023/11/30 02:49:16;;;;;;;9.20;6.15;;;;;;;;;;5044450;28;20083;-78
2023/11/30 02:51:43;;;;;;;9.85;5.65;;;;;;;;;;5044937;28;20495;-78
2023/11/30 02:54:10;;;;;;;8.63;6.63;;;;;;;;;;5059149;28;20068;-78
2023/11/30 02:56:40;;;;;;;7.35;5.82;;;;;;;;;;5050400;28;20049;-79
2023/11/30 02:59:07;;;;;;;10.60;5.43;;;;;;;;;;5045227;28;20456;-78
2023/11/30 03:01:33;;;;;;;8.75;5.53;;;;;;;;;;5078312;28;20127;-78
2023/11/30 03:04:00;;;;;;;11.50;5.75;;;;;;;;;;5077754;28;20061;-78
2023/11/30 03:06:27;;;;;;;8.30;5.85;;;;;;;;;;5028976;28;20064;-78
2023/11/30 03:08:54;;;;;;;8.95;6.00;;;;;;;;;;5079571;28;20076;-78
2023/11/30 03:11:21;;;;;;;9.63;5.88;;;;;;;;;;5079331;28;20044;-79
2023/11/30 03:13:47;;;;;;;7.53;5.40;;;;;;;;;;5077493;28;20057;-79
2023/11/30 03:16:22;;;;;;;9.38;5.85;;;;;;;;;;5061367;28;20052;-78
2023/11/30 03:19:34;;;;;;;11.65;5.82;;;;;;;;;;5061300;28;20156;-79
2023/11/30 03:22:01;;;;;;;8.23;5.88;;;;;;;;;;5061185;28;20105;-78
2023/11/30 03:24:27;;;;;;;6.68;5.43;;;;;;;;;;5028377;28;20084;-78
2023/11/30 03:26:54;;;;;;;10.10;6.07;;;;;;;;;;5057885;28;20067;-78
2023/11/30 03:29:21;;;;;;;6.50;4.93;;;;;;;;;;5076652;28;20052;-79
2023/11/30 03:31:48;;;;;;;8.75;5.53;;;;;;;;;;5075383;28;20048;-78
2023/11/30 03:34:14;;;;;;;7.93;5.70;;;;;;;;;;5054761;28;20061;-78
2023/11/30 03:36:41;;;;;;;9.02;5.88;;;;;;;;;;5044946;28;20630;-79
2023/11/30 03:39:08;;;;;;;9.77;6.03;;;;;;;;;;5061007;28;20056;-79
2023/11/30 03:41:35;;;;;;;11.00;6.07;;;;;;;;;;5073438;28;20127;-81
2023/11/30 03:44:02;;;;;;;8.15;5.70;;;;;;;;;;5047051;28;20395;-79
2023/11/30 03:46:29;;;;;;;9.27;5.93;;;;;;;;;;5061851;28;20512;-79
2023/11/30 03:48:56;;;;;;;9.75;5.75;;;;;;;;;;5061734;28;20125;-79
2023/11/30 03:51:23;;;;;;;7.63;4.97;;;;;;;;;;5044713;28;20048;-80
2023/11/30 03:53:50;;;;;;;7.63;5.75;;;;;;;;;;5058369;28;20053;-79
2023/11/30 03:56:17;;;;;;;7.07;5.35;;;;;;;;;;5060625;28;20074;-78
2023/11/30 03:58:44;;;;;;;9.48;5.68;;;;;;;;;;5041827;28;20056;-80
2023/11/30 04:01:10;;;;;;;10.10;5.57;;;;;;;;;;5045638;28;20080;-80
2023/11/30 04:03:37;;;;;;;8.27;5.07;;;;;;;;;;5054294;28;20044;-80
2023/11/30 04:06:04;;;;;;;8.82;5.40;;;;;;;;;;5036478;28;20056;-81
2023/11/30 04:08:34;;;;;;;7.90;5.82;;;;;;;;;;5060740;28;20059;-85
2023/11/30 04:11:01;;;;;;;5.50;4.25;;;;;;;;;;5045153;28;20111;-78
2023/11/30 04:13:28;;;;;;;7.45;4.75;;;;;;;;;;5077484;28;20056;-81
2023/11/30 04:15:54;;;;;;;6.20;4.55;;;;;;;;;;5061741;28;20049;-82
2023/11/30 04:18:21;;;;;;;8.20;4.85;;;;;;;;;;5048566;28;20468;-81
2023/11/30 04:20:49;;;;;;;7.22;4.45;;;;;;;;;;5061132;28;20048;-81
2023/11/30 04:23:16;;;;;;;6.53;4.20;;;;;;;;;;5069898;28;20114;-80
2023/11/30 04:25:43;;;;;;;7.05;4.65;;;;;;;;;;5061605;28;20048;-80
2023/11/30 04:28:10;;;;;;;10.30;4.78;;;;;;;;;;5061040;28;20102;-79
2023/11/30 04:30:37;;;;;;;7.20;4.90;;;;;;;;;;5061448;28;20045;-80
2023/11/30 04:33:04;;;;;;;6.25;4.55;;;;;;;;;;5062863;28;20051;-80
2023/11/30 04:35:31;;;;;;;7.20;3.85;;;;;;;;;;5074467;28;20052;-80
2023/11/30 04:37:58;;;;;;;9.48;4.97;;;;;;;;;;5026481;28;20139;-79
2023/11/30 04:40:25;;;;;;;6.30;4.65;;;;;;;;;;5023665;28;20101;-81
2023/11/30 04:42:52;;;;;;;6.95;4.85;;;;;;;;;;5040227;28;20076;-80
2023/11/30 04:45:18;;;;;;;9.07;5.20;;;;;;;;;;5062479;28;20131;-81
2023/11/30 04:47:45;;;;;;;5.53;4.15;;;;;;;;;;5063430;28;20052;-80
2023/11/30 04:50:12;;;;;;;8.60;5.30;;;;;;;;;;5055757;28;20597;-80
2023/11/30 04:52:39;;;;;;;10.10;5.38;;;;;;;;;;5058307;28;20045;-82
2023/11/30 04:55:07;;;;;;;5.95;4.22;;;;;;;;;;5040810;28;20155;-81
2023/11/30 04:57:33;;;;;;;7.43;4.03;;;;;;;;;;5030621;28;20057;-80
2023/11/30 05:00:00;;;;;;;8.20;4.32;;;;;;;;;;5058473;28;20059;-80
2023/11/30 05:02:27;;;;;;;7.00;4.50;;;;;;;;;;5061173;28;20048;-80
2023/11/30 05:04:54;;;;;;;6.40;4.43;;;;;;;;;;5070722;28;20048;-80
2023/11/30 05:07:21;;;;;;;6.68;4.68;;;;;;;;;;5076092;28;20052;-80
2023/11/30 05:09:48;;;;;;;8.00;4.35;;;;;;;;;;5040689;28;20051;-80
2023/11/30 05:12:15;;;;;;;6.28;4.05;;;;;;;;;;5073028;28;20049;-80
2023/11/30 05:14:41;;;;;;;6.15;4.38;;;;;;;;;;5062798;28;20153;-80
2023/11/30 05:17:08;;;;;;;6.28;4.60;;;;;;;;;;5061600;28;20087;-78
2023/11/30 05:19:35;;;;;;;11.55;5.43;;;;;;;;;;5059599;28;20064;-79
2023/11/30 05:22:02;;;;;;;8.13;5.07;;;;;;;;;;5059841;28;20048;-78
2023/11/30 05:24:28;;;;;;;7.65;4.55;;;;;;;;;;5077557;28;20118;-78
2023/11/30 05:26:55;;;;;;;5.47;4.38;;;;;;;;;;5091937;28;20046;-78
2023/11/30 05:29:22;;;;;;;7.63;4.95;;;;;;;;;;5081439;28;20056;-77
2023/11/30 05:31:49;;;;;;;7.72;4.97;;;;;;;;;;5061223;28;20052;-80
2023/11/30 05:34:15;;;;;;;8.30;5.35;;;;;;;;;;5053660;28;20033;-80
2023/11/30 05:36:42;;;;;;;7.80;4.60;;;;;;;;;;5056096;28;20079;-79
2023/11/30 05:39:09;;;;;;;9.00;4.78;;;;;;;;;;5059651;28;20057;-81
2023/11/30 05:41:36;;;;;;;7.32;4.65;;;;;;;;;;5061027;28;20044;-81
2023/11/30 05:44:03;;;;;;;8.25;5.15;;;;;;;;;;5050192;28;20164;-79
2023/11/30 05:46:30;;;;;;;9.30;6.32;;;;;;;;;;5051426;28;20490;-80
2023/11/30 05:48:57;;;;;;;7.78;5.05;;;;;;;;;;5070267;28;20052;-80
2023/11/30 05:51:24;;;;;;;9.00;5.03;;;;;;;;;;5049983;28;20132;-81
2023/11/30 05:53:51;;;;;;;7.32;4.57;;;;;;;;;;5048975;28;20083;-80
2023/11/30 05:56:17;;;;;;;6.03;4.53;;;;;;;;;;5016982;28;20057;-81
2023/11/30 05:58:44;;;;;;;7.57;5.10;;;;;;;;;;5037209;28;20105;-81
2023/11/30 06:01:11;;;;;;;7.97;4.85;;;;;;;;;;5051377;28;20135;-80
2023/11/30 06:03:38;;;;;;;6.60;3.97;;;;;;;;;;5053027;28;20049;-82
2023/11/30 06:06:09;;;;;;;7.53;5.43;;;;;;;;;;5050757;28;20052;-79
2023/11/30 06:08:36;;;;;;;7.10;4.30;;;;;;;;;;5055706;28;20043;-79
2023/11/30 06:11:02;;;;;;;9.27;4.40;;;;;;;;;;5065609;28;20049;-81
2023/11/30 06:13:29;;;;;;;8.27;4.93;;;;;;;;;;5045678;28;20068;-80
2023/11/30 06:15:56;;;;;;;7.20;4.90;;;;;;;;;;5063669;28;20427;-81
2023/11/30 06:18:23;;;;;;;8.27;4.50;;;;;;;;;;5043097;28;20263;-79
2023/11/30 06:20:50;;;;;;;5.40;4.03;;;;;;;;;;5022416;28;20084;-79
2023/11/30 06:23:17;;;;;;;7.35;4.75;;;;;;;;;;5051614;28;20086;-78
2023/11/30 06:25:44;;;;;;;9.70;6.13;;;;;;;;;;5056299;28;20053;-79
2023/11/30 06:28:11;;;;;;;8.88;5.85;;;;;;;;;;5049731;28;20065;-79
2023/11/30 06:30:38;;;;;;;11.10;5.35;;;;;;;;;;5053390;28;20128;-79
2023/11/30 06:33:05;;;;;;;7.32;5.30;;;;;;;;;;5020786;28;20055;-79
2023/11/30 06:35:32;;;;;;;7.50;4.68;;;;;;;;;;5052691;28;20076;-79
2023/11/30 06:37:59;;;;;;;8.18;5.70;;;;;;;;;;5039968;28;20550;-78
2023/11/30 06:40:25;;;;;;;7.72;5.32;;;;;;;;;;5016102;28;20473;-79
2023/11/30 06:42:52;;;;;;;8.43;5.20;;;;;;;;;;5049529;28;20095;-78
2023/11/30 06:45:19;;;;;;;6.28;4.00;;;;;;;;;;5047157;28;20081;-79
2023/11/30 06:47:46;;;;;;;8.57;4.22;;;;;;;;;;5037370;28;20686;-79
2023/11/30 06:50:13;;;;;;;4.95;4.18;;;;;;;;;;5053888;28;20079;-79
2023/11/30 06:52:39;;;;;;;5.85;4.32;;;;;;;;;;5045353;28;20041;-78
2023/11/30 06:55:06;;;;;;;5.68;4.45;;;;;;;;;;5029270;28;20076;-79
2023/11/30 06:57:33;;;;;;;7.53;4.78;;;;;;;;;;5051629;28;20045;-78
2023/11/30 07:00:00;;;;;;;7.13;4.47;;;;;;;;;;5032098;28;20154;-78
2023/11/30 07:02:28;;;;;;;6.20;4.35;;;;;;;;;;5036922;28;20055;-79
2023/11/30 07:04:54;;;;;;;6.32;4.63;;;;;;;;;;5048911;28;20091;-78
2023/11/30 07:07:21;;;;;;;6.68;4.25;;;;;;;;;;5047556;28;20067;-78
2023/11/30 07:10:01;;;;;;;6.07;4.60;;;;;;;;;;5040420;28;20068;-78
2023/11/30 07:12:28;;;;;;;5.68;4.50;;;;;;;;;;5038055;28;20330;-78
2023/11/30 07:14:54;;;;;;;6.93;4.70;;;;;;;;;;5048993;28;20044;-78
2023/11/30 07:17:23;;;;;;;7.07;4.90;;;;;;;;;;5054436;28;20098;-77
2023/11/30 07:19:51;;;;;;;6.72;4.75;;;;;;;;;;5042270;28;20087;-78
2023/11/30 07:22:20;;;;;;;7.80;5.00;;;;;;;;;;5022401;28;20057;-81
2023/11/30 07:24:47;;;;;;;8.20;4.63;;;;;;;;;;5049047;28;20136;-78
2023/11/30 07:27:18;;;;;;;7.32;4.57;;;;;;;;;;5032198;28;20162;-78
2023/11/30 07:29:45;;;;;;;6.80;4.57;;;;;;;;;;5058504;28;20088;-80
2023/11/30 07:32:16;;;;;;;5.60;4.25;;;;;;;;;;5060519;28;20049;-82
2023/11/30 07:34:44;;;;;;;7.82;5.43;;;;;;;;;;5046649;28;20124;-81
2023/11/30 07:37:12;;;;;;;7.88;4.95;;;;;;;;;;5053246;28;20060;-82
2023/11/30 07:39:39;;;;;;;7.72;4.60;;;;;;;;;;5062608;28;20069;-79
2023/11/30 07:42:06;;;;;;;6.40;4.57;;;;;;;;;;5062002;28;20452;-80
2023/11/30 07:44:35;;;;;;;7.53;4.35;;;;;;;;;;5036782;28;20064;-81
2023/11/30 07:47:02;;;;;;;7.40;5.03;;;;;;;;;;5065452;28;20102;-83
2023/11/30 07:49:28;;;;;;;6.97;4.63;;;;;;;;;;5044210;28;20084;-80
2023/11/30 07:51:55;;;;;;;6.68;5.35;;;;;;;;;;5055946;28;20053;-80
2023/11/30 07:54:22;;;;;;;7.60;4.93;;;;;;;;;;5043931;28;20504;-80
2023/11/30 07:56:49;;;;;;;7.90;4.65;;;;;;;;;;5024219;28;20048;-81
2023/11/30 07:59:16;;;;;;;5.57;4.05;;;;;;;;;;5046867;28;20056;-80
2023/11/30 08:01:43;;;;;;;6.65;4.63;;;;;;;;;;5034395;28;20060;-78
2023/11/30 08:04:10;;;;;;;7.95;4.93;;;;;;;;;;5049002;28;20059;-79
2023/11/30 08:06:38;;;;;;;6.28;4.60;;;;;;;;;;5035462;28;20076;-79
2023/11/30 08:09:06;;;;;;;12.10;4.65;;;;;;;;;;5048071;28;20082;-78
2023/11/30 08:11:33;;;;;;;7.70;4.50;;;;;;;;;;5039275;28;20135;-79
2023/11/30 08:14:00;;;;;;;5.25;4.35;;;;;;;;;;5069005;28;20573;-78
2023/11/30 08:16:27;;;;;;;6.57;4.57;;;;;;;;;;5051185;28;20053;-78
2023/11/30 08:18:54;;;;;;;6.93;4.28;;;;;;;;;;5048505;28;20118;-79
2023/11/30 08:21:21;;;;;;;5.97;4.47;;;;;;;;;;5031372;28;20061;-78
2023/11/30 08:23:48;;;;;;;6.88;5.18;;;;;;;;;;5055109;28;20051;-79
2023/11/30 08:26:16;;;;;;;9.30;4.80;;;;;;;;;;5023132;28;20056;-79
2023/11/30 08:28:43;;;;;;;5.90;3.92;;;;;;;;;;5037908;28;20092;-79
2023/11/30 08:31:11;;;;;;;8.65;4.40;;;;;;;;;;5022879;28;20062;-80
2023/11/30 08:33:38;;;;;;;7.38;4.47;;;;;;;;;;5039771;28;20095;-79
2023/11/30 08:36:06;;;;;;;7.95;4.38;;;;;;;;;;5029468;28;20049;-79
2023/11/30 08:38:35;;;;;;;6.32;4.82;;;;;;;;;;5053439;28;20048;-80
2023/11/30 08:41:03;;;;;;;7.53;4.97;;;;;;;;;;5038825;28;20084;-79
2023/11/30 08:43:30;;;;;;;9.25;5.43;;;;;;;;;;5018942;28;20710;-78
2023/11/30 08:45:57;;;;;;;8.75;4.90;;;;;;;;;;5049757;28;20049;-79
2023/11/30 08:48:25;;;;;;;8.38;4.88;;;;;;;;;;5035350;28;20059;-78
2023/11/30 08:50:53;;;;;;;6.82;4.80;;;;;;;;;;5059726;28;20133;-78
2023/11/30 08:53:21;;;;;;;5.68;4.20;;;;;;;;;;5033221;28;20074;-78
2023/11/30 08:55:47;;;;;;;10.60;5.13;;;;;;;;;;5047584;28;20106;-78
2023/11/30 08:58:14;;;;;;;6.43;4.28;;;;;;;;;;5032100;28;20123;-77
2023/11/30 09:00:43;;;;;;;5.93;4.00;;;;;;;;;;5033651;28;20052;-78
2023/11/30 09:03:10;;;;;;;8.15;4.72;;;;;;;;;;5030956;28;20048;-78
2023/11/30 09:05:37;;;;;;;6.93;4.22;;;;;;;;;;5035208;28;20129;-77
2023/11/30 09:08:04;;;;;;;8.82;5.07;;;;;;;;;;5034001;28;20049;-78
2023/11/30 09:10:31;;;;;;;7.80;5.00;;;;;;;;;;5044640;28;20056;-78
2023/11/30 09:12:58;;;;;;;7.25;4.43;;;;;;;;;;5012165;28;20079;-78
2023/11/30 09:15:25;;;;;;;7.40;4.68;;;;;;;;;;5042903;28;20056;-78
2023/11/30 09:17:53;;;;;;;10.02;5.72;;;;;;;;;;5062183;28;20522;-78
2023/11/30 09:20:20;;;;;;;7.10;4.75;;;;;;;;;;5030562;28;20053;-79
2023/11/30 09:22:47;;;;;;;6.22;4.65;;;;;;;;;;5032583;28;20056;-78
2023/11/30 09:25:14;;;;;;;9.45;4.50;;;;;;;;;;5013888;28;20064;-78
2023/11/30 09:27:42;;;;;;;7.22;5.35;;;;;;;;;;5055137;28;20049;-78
2023/11/30 09:30:10;;;;;;;9.43;5.38;;;;;;;;;;5049037;28;20064;-79
2023/11/30 09:32:38;;;;;;;7.75;5.05;;;;;;;;;;5035582;28;20076;-78
2023/11/30 09:35:05;;;;;;;7.40;5.03;;;;;;;;;;5049593;28;20418;-78
2023/11/30 09:37:33;;;;;;;8.75;4.95;;;;;;;;;;5026106;28;20044;-77
2023/11/30 09:40:00;;;;;;;7.75;5.30;;;;;;;;;;5066312;28;20620;-78
2023/11/30 09:42:29;;;;;;;8.23;5.40;;;;;;;;;;5060617;28;20064;-78
2023/11/30 09:44:58;;;;;;;8.98;5.65;;;;;;;;;;5082951;28;20092;-78
2023/11/30 09:47:25;;;;;;;8.88;5.25;;;;;;;;;;5048599;28;20063;-77
2023/11/30 09:49:52;;;;;;;14.48;6.30;;;;;;;;;;5058707;28;20098;-78
2023/11/30 09:52:19;;;;;;;9.57;5.78;;;;;;;;;;5045911;28;20136;-78
2023/11/30 09:54:46;;;;;;;9.23;5.40;;;;;;;;;;5050945;28;20536;-77
2023/11/30 09:57:13;;;;;;;8.65;5.80;;;;;;;;;;5046415;28;20143;-77
2023/11/30 09:59:40;;;;;;;9.88;6.18;;;;;;;;;;5051166;28;20055;-78
2023/11/30 10:02:09;;;;;;;11.40;6.72;;;;;;;;;;5059808;28;20070;-79
2023/11/30 10:04:39;;;;;;;11.90;6.38;;;;;;;;;;5062278;28;20075;-77
2023/11/30 10:07:07;;;;;;;8.98;6.10;;;;;;;;;;5070614;28;20032;-77
2023/11/30 10:09:37;;;;;;;8.52;6.05;;;;;;;;;;5076254;28;20081;-77
2023/11/30 10:12:05;;;;;;;9.85;6.15;;;;;;;;;;5082779;28;20060;-78
2023/11/30 10:14:32;;;;;;;8.85;6.20;;;;;;;;;;5030927;28;20111;-77
2023/11/30 10:17:00;;;;;;;12.10;7.22;;;;;;;;;;5032895;28;20049;-78
2023/11/30 10:19:28;;;;;;;14.57;8.35;;;;;;;;;;5044461;28;20143;-78
2023/11/30 10:21:56;;;;;;;12.80;6.95;;;;;;;;;;5064331;28;20044;-78
2023/11/30 10:24:23;;;;;;;10.55;6.93;;;;;;;;;;5047892;28;20056;-77
2023/11/30 10:26:51;;;;;;;9.57;6.45;;;;;;;;;;5071767;28;20075;-77
2023/11/30 10:29:20;;;;;;;9.98;6.63;;;;;;;;;;5050411;28;20110;-77
2023/11/30 10:31:51;;;;;;;12.23;7.20;;;;;;;;;;5051713;28;20053;-78
2023/11/30 10:34:24;;;;;;;13.20;8.20;;;;;;;;;;5051086;28;20060;-77
2023/11/30 10:36:51;;;;;;;14.38;7.88;;;;;;;;;;5046386;28;20074;-80
2023/11/30 10:39:18;;;;;;;10.77;6.60;;;;;;;;;;5051354;28;20084;-79
2023/11/30 10:41:52;;;;;;;9.95;6.63;;;;;;;;;;5046287;28;20053;-79
2023/11/30 10:44:29;;;;;;;8.65;6.35;;;;;;;;;;5048905;28;20068;-79
2023/11/30 10:46:58;;;;;;;11.10;7.43;;;;;;;;;;5052041;28;20053;-78
2023/11/30 10:49:27;;;;;;;12.38;7.45;;;;;;;;;;5052214;28;20141;-79
2023/11/30 10:51:55;;;;;;;9.48;6.30;;;;;;;;;;5048706;28;20068;-79
2023/11/30 10:54:36;;;;;;;10.02;6.38;;;;;;;;;;5080815;28;20621;-79
2023/11/30 10:57:03;;;;;;;9.68;6.43;;;;;;;;;;5059487;28;20056;-79
2023/11/30 10:59:31;;;;;;;8.48;6.35;;;;;;;;;;5041036;28;20056;-79
2023/11/30 11:02:00;;;;;;;8.85;6.88;;;;;;;;;;5053151;28;20053;-80
2023/11/30 11:04:28;;;;;;;9.73;6.07;;;;;;;;;;5055408;28;20052;-79
2023/11/30 11:07:02;;;;;;;10.40;6.95;;;;;;;;;;5054365;28;20138;-78
2023/11/30 11:10:00;;;;;;;7.70;6.03;;;;;;;;;;5046502;28;20128;-77
2023/11/30 11:12:33;;;;;;;8.88;5.93;;;;;;;;;;5059008;28;20063;-79
2023/11/30 11:15:08;;;;;;;8.38;6.53;;;;;;;;;;5069242;28;20481;-78
2023/11/30 11:17:49;;;;;;;8.07;6.13;;;;;;;;;;5032354;28;20504;-78
2023/11/30 11:20:27;;;;;;;10.73;5.93;;;;;;;;;;5071965;28;20071;-80
2023/11/30 11:23:03;;;;;;;11.02;6.88;;;;;;;;;;5062496;28;20048;-79
2023/11/30 11:25:43;;;;;;;10.60;6.70;;;;;;;;;;5065594;28;20080;-79
2023/11/30 11:28:11;;;;;;;10.77;6.72;;;;;;;;;;5063323;28;20049;-79
2023/11/30 11:30:48;;;;;;;9.73;6.80;;;;;;;;;;5070344;28;20051;-79
2023/11/30 11:33:16;;;;;;;9.50;6.03;;;;;;;;;;5070936;28;20045;-78
2023/11/30 11:35:44;;;;;;;10.73;6.68;;;;;;;;;;5051041;28;20056;-79
2023/11/30 11:38:11;;;;;;;12.85;7.22;;;;;;;;;;5039619;28;20056;-78
2023/11/30 11:40:38;;;;;;;8.55;5.80;;;;;;;;;;5051287;28;20140;-78
2023/11/30 11:43:05;;;;;;;8.23;5.72;;;;;;;;;;5034545;28;20147;-78
2023/11/30 11:45:32;;;;;;;7.30;5.40;;;;;;;;;;5029743;28;20052;-78
2023/11/30 11:48:00;;;;;;;10.27;6.20;;;;;;;;;;5031852;28;20057;-80
2023/11/30 11:50:28;;;;;;;9.48;5.88;;;;;;;;;;5055637;28;20065;-80
2023/11/30 11:52:59;;;;;;;8.73;6.38;;;;;;;;;;5053470;28;20057;-80
2023/11/30 11:55:26;;;;;;;10.57;6.00;;;;;;;;;;5057332;28;20071;-77
2023/11/30 11:57:55;;;;;;;8.75;6.00;;;;;;;;;;5078375;28;20045;-79
2023/11/30 12:00:24;;;;;;;8.82;5.82;;;;;;;;;;5042727;28;20059;-78
2023/11/30 12:03:02;;;;;;;9.82;6.72;;;;;;;;;;5036237;28;20138;-79
2023/11/30 12:05:29;;;;;;;10.35;6.38;;;;;;;;;;5072163;28;20052;-79
2023/11/30 12:07:58;;;;;;;7.88;5.07;;;;;;;;;;5076092;28;20273;-79
2023/11/30 12:10:52;;;;;;;9.18;5.30;;;;;;;;;;5066121;28;20435;-79
2023/11/30 12:13:22;;;;;;;7.80;5.32;;;;;;;;;;5071495;28;20087;-80
2023/11/30 12:15:49;;;;;;;7.70;5.15;;;;;;;;;;5067611;28;20045;-80
2023/11/30 12:18:16;;;;;;;10.38;6.20;;;;;;;;;;5059430;28;20091;-79
2023/11/30 12:20:43;;;;;;;9.32;5.45;;;;;;;;;;5067130;28;20048;-80
2023/11/30 12:23:14;;;;;;;8.80;6.07;;;;;;;;;;5067419;28;20071;-79
2023/11/30 12:25:40;;;;;;;8.30;6.00;;;;;;;;;;5056116;28;20056;-78
2023/11/30 12:28:07;;;;;;;10.60;6.13;;;;;;;;;;5036012;28;20423;-78
2023/11/30 12:30:34;;;;;;;8.60;5.38;;;;;;;;;;5069992;28;20052;-78
2023/11/30 12:33:01;;;;;;;9.40;6.15;;;;;;;;;;5082892;28;20079;-78
2023/11/30 12:35:28;;;;;;;9.10;5.72;;;;;;;;;;5082750;28;20053;-78
2023/11/30 12:37:55;;;;;;;7.93;5.57;;;;;;;;;;5056185;28;20059;-78
2023/11/30 12:40:21;;;;;;;7.75;5.75;;;;;;;;;;5043764;28;20064;-78
2023/11/30 12:42:48;;;;;;;8.63;5.82;;;;;;;;;;5055068;28;20045;-78
2023/11/30 12:45:15;;;;;;;8.70;5.60;;;;;;;;;;5062374;28;20582;-78
2023/11/30 12:47:43;;;;;;;10.20;5.95;;;;;;;;;;5062499;28;20056;-78
2023/11/30 12:50:10;;;;;;;9.93;5.97;;;;;;;;;;5029919;28;20056;-78
2023/11/30 12:52:38;;;;;;;10.05;5.78;;;;;;;;;;5068042;28;20502;-78
2023/11/30 12:55:05;;;;;;;9.48;6.50;;;;;;;;;;5050808;28;20083;-78
2023/11/30 12:57:34;;;;;;;12.15;6.30;;;;;;;;;;5047310;28;20106;-78
2023/11/30 13:00:08;;;;;;;7.90;5.18;;;;;;;;;;5069845;28;20084;-79
2023/11/30 13:02:35;;;;;;;11.98;6.32;;;;;;;;;;5050646;28;20052;-78
2023/11/30 13:05:03;;;;;;;9.07;5.70;;;;;;;;;;5053568;28;20055;-79
2023/11/30 13:07:30;;;;;;;8.90;6.15;;;;;;;;;;5056207;28;20056;-78
2023/11/30 13:09:56;;;;;;;10.18;6.55;;;;;;;;;;5063861;28;20060;-78
2023/11/30 13:12:26;;;;;;;7.57;5.28;;;;;;;;;;5072646;28;20082;-82
2023/11/30 13:14:56;;;;;;;7.38;5.65;;;;;;;;;;5066864;28;20506;-79
2023/11/30 13:17:32;;;;;;;11.13;6.15;;;;;;;;;;5063094;28;20041;-80
2023/11/30 13:23:10;;;;;;;8.38;5.05;;;;;;;;;;5061535;28;20105;-79
2023/11/30 13:25:44;;;;;;;8.15;5.60;;;;;;;;;;5080600;28;20077;-80
2023/11/30 13:28:12;;;;;;;8.43;5.28;;;;;;;;;;5076315;28;20082;-79
2023/11/30 13:30:38;;;;;;;8.55;5.78;;;;;;;;;;5074409;28;20045;-80
2023/11/30 13:33:05;;;;;;;7.72;5.10;;;;;;;;;;5057224;28;20103;-80
2023/11/30 13:35:32;;;;;;;8.27;5.57;;;;;;;;;;5054145;28;20049;-79
2023/11/30 13:37:59;;;;;;;7.35;5.20;;;;;;;;;;5078595;28;20426;-79
2023/11/30 13:40:26;;;;;;;9.18;5.50;;;;;;;;;;5063099;28;20064;-79
2023/11/30 13:42:53;;;;;;;9.70;5.70;;;;;;;;;;5075475;28;20098;-80
2023/11/30 13:45:24;;;;;;;11.35;5.68;;;;;;;;;;5051448;28;20047;-81
2023/11/30 13:47:51;;;;;;;8.65;5.68;;;;;;;;;;5062205;28;20048;-80
2023/11/30 13:50:18;;;;;;;11.88;6.20;;;;;;;;;;5089279;28;20048;-79
2023/11/30 13:52:56;;;;;;;8.85;6.05;;;;;;;;;;5081912;28;20052;-80
2023/11/30 13:55:23;;;;;;;10.63;5.93;;;;;;;;;;5099421;28;20047;-81
2023/11/30 13:57:50;;;;;;;9.82;6.35;;;;;;;;;;5075729;28;20052;-80
2023/11/30 14:00:17;;;;;;;9.13;6.07;;;;;;;;;;5069451;28;20095;-82
2023/11/30 14:02:44;;;;;;;8.27;5.90;;;;;;;;;;5083284;28;20044;-82
2023/11/30 14:05:11;;;;;;;11.32;6.85;;;;;;;;;;5070420;28;20056;-81
2023/11/30 14:07:38;;;;;;;7.25;6.10;;;;;;;;;;5069511;28;20129;-81
2023/11/30 14:10:08;;;;;;;8.38;5.43;;;;;;;;;;5086558;28;20064;-81
2023/11/30 14:12:35;;;;;;;9.43;6.15;;;;;;;;;;5032999;28;20048;-81
2023/11/30 14:15:05;;;;;;;8.43;5.90;;;;;;;;;;5049957;28;20048;-80
2023/11/30 14:17:33;;;;;;;8.10;5.20;;;;;;;;;;5069523;28;20110;-81
2023/11/30 14:20:00;;;;;;;7.95;5.65;;;;;;;;;;5086928;28;20112;-80
2023/11/30 14:22:33;;;;;;;10.75;6.25;;;;;;;;;;5085671;28;20148;-80
2023/11/30 14:25:01;;;;;;;8.68;6.20;;;;;;;;;;5083430;28;20048;-81
2023/11/30 14:27:29;;;;;;;7.57;6.05;;;;;;;;;;5082293;28;20056;-81
2023/11/30 14:29:56;;;;;;;6.68;5.47;;;;;;;;;;5047818;28;20053;-80
2023/11/30 14:32:23;;;;;;;8.85;5.53;;;;;;;;;;5048253;28;20087;-81
2023/11/30 14:34:50;;;;;;;9.90;6.28;;;;;;;;;;5032419;28;20495;-81
2023/11/30 14:37:17;;;;;;;11.60;6.80;;;;;;;;;;5064424;28;20060;-81
2023/11/30 14:39:44;;;;;;;8.60;5.68;;;;;;;;;;5054415;28;20053;-81
2023/11/30 14:42:11;;;;;;;11.07;6.47;;;;;;;;;;5049333;28;20124;-81
2023/11/30 14:44:40;;;;;;;7.68;5.65;;;;;;;;;;5054577;28;20049;-81
2023/11/30 14:47:09;;;;;;;11.25;6.72;;;;;;;;;;5044399;28;20060;-81